sensor_id;sensor_type;location;lat;lon;timestamp;pressure;altitude;pressure_sealevel;temperature;humidity
10342;BME280;5216;54.602;18.356;2024-02-16T00:02:02;101789.88;;;12.90;72.15
10342;BME280;5216;54.602;18.356;2024-02-16T00:04:29;101790.72;;;12.90;72.10
10342;BME280;5216;54.602;18.356;2024-02-16T00:06:56;101782.56;;;12.92;72.19
10342;BME280;5216;54.602;18.356;2024-02-16T00:09:23;101784.53;;;12.90;71.74
10342;BME280;5216;54.602;18.356;2024-02-16T00:11:50;101781.59;;;12.93;72.07
10342;BME280;5216;54.602;18.356;2024-02-16T00:14:19;101773.78;;;12.90;71.87
10342;BME280;5216;54.602;18.356;2024-02-16T00:16:47;101788.94;;;12.91;72.03
10342;BME280;5216;54.602;18.356;2024-02-16T00:19:14;101777.47;;;12.89;72.12
10342;BME280;5216;54.602;18.356;2024-02-16T00:21:43;101781.84;;;12.90;72.00
10342;BME280;5216;54.602;18.356;2024-02-16T00:24:10;101789.78;;;12.91;71.71
10342;BME280;5216;54.602;18.356;2024-02-16T00:26:37;101779.88;;;12.92;72.20
10342;BME280;5216;54.602;18.356;2024-02-16T00:29:09;101783.41;;;12.92;72.18
10342;BME280;5216;54.602;18.356;2024-02-16T00:31:35;101780.59;;;12.94;71.95
10342;BME280;5216;54.602;18.356;2024-02-16T00:34:02;101784.28;;;12.93;72.01
10342;BME280;5216;54.602;18.356;2024-02-16T00:36:29;101776.34;;;12.91;71.96
10342;BME280;5216;54.602;18.356;2024-02-16T00:38:58;101777.19;;;12.92;72.00
10342;BME280;5216;54.602;18.356;2024-02-16T00:41:25;101780.72;;;12.92;72.15
10342;BME280;5216;54.602;18.356;2024-02-16T00:43:52;101782.44;;;12.93;71.96
10342;BME280;5216;54.602;18.356;2024-02-16T00:46:19;101776.97;;;12.95;72.36
10342;BME280;5216;54.602;18.356;2024-02-16T00:48:46;101772.44;;;12.95;71.85
10342;BME280;5216;54.602;18.356;2024-02-16T00:51:14;101766.22;;;12.95;72.14
10342;BME280;5216;54.602;18.356;2024-02-16T00:53:41;101773.06;;;12.99;72.03
10342;BME280;5216;54.602;18.356;2024-02-16T00:56:08;101772.06;;;13.00;72.05
10342;BME280;5216;54.602;18.356;2024-02-16T00:58:36;101773.91;;;12.99;71.80
10342;BME280;5216;54.602;18.356;2024-02-16T01:01:04;101765.72;;;13.01;71.94
10342;BME280;5216;54.602;18.356;2024-02-16T01:03:31;101760.38;;;13.01;71.74
10342;BME280;5216;54.602;18.356;2024-02-16T01:05:58;101760.38;;;13.01;72.04
10342;BME280;5216;54.602;18.356;2024-02-16T01:08:25;101753.28;;;13.00;71.61
10342;BME280;5216;54.602;18.356;2024-02-16T01:10:54;101750.59;;;13.00;71.70
10342;BME280;5216;54.602;18.356;2024-02-16T01:13:21;101754.38;;;12.97;71.92
10342;BME280;5216;54.602;18.356;2024-02-16T01:15:48;101749.88;;;12.98;72.03
10342;BME280;5216;54.602;18.356;2024-02-16T01:18:14;101744.50;;;12.98;71.82
10342;BME280;5216;54.602;18.356;2024-02-16T01:32:54;101744.03;;;12.82;71.71
10342;BME280;5216;54.602;18.356;2024-02-16T01:35:21;101738.06;;;12.79;71.95
10342;BME280;5216;54.602;18.356;2024-02-16T01:37:48;101733.75;;;12.76;72.32
10342;BME280;5216;54.602;18.356;2024-02-16T01:40:15;101728.41;;;12.76;72.34
10342;BME280;5216;54.602;18.356;2024-02-16T01:42:44;101719.38;;;12.77;72.35
10342;BME280;5216;54.602;18.356;2024-02-16T01:45:10;101721.19;;;12.77;72.47
10342;BME280;5216;54.602;18.356;2024-02-16T01:47:41;101719.38;;;12.77;72.45
10342;BME280;5216;54.602;18.356;2024-02-16T01:50:10;101709.50;;;12.78;72.49
10342;BME280;5216;54.602;18.356;2024-02-16T01:52:37;101711.22;;;12.79;72.36
10342;BME280;5216;54.602;18.356;2024-02-16T01:55:05;101713.78;;;12.80;72.38
10342;BME280;5216;54.602;18.356;2024-02-16T01:57:47;101720.84;;;12.81;72.48
10342;BME280;5216;54.602;18.356;2024-02-16T02:00:15;101716.38;;;12.82;72.36
10342;BME280;5216;54.602;18.356;2024-02-16T02:02:45;101719.88;;;12.82;72.49
10342;BME280;5216;54.602;18.356;2024-02-16T02:05:13;101709.16;;;12.82;72.64
10342;BME280;5216;54.602;18.356;2024-02-16T02:07:42;101714.41;;;12.84;72.38
10342;BME280;5216;54.602;18.356;2024-02-16T02:10:10;101714.41;;;12.84;72.52
10342;BME280;5216;54.602;18.356;2024-02-16T02:12:40;101712.44;;;12.86;72.89
10342;BME280;5216;54.602;18.356;2024-02-16T02:15:09;101700.59;;;12.88;72.71
10342;BME280;5216;54.602;18.356;2024-02-16T02:17:36;101695.00;;;12.91;72.46
10342;BME280;5216;54.602;18.356;2024-02-16T02:20:03;101691.31;;;12.92;72.85
10342;BME280;5216;54.602;18.356;2024-02-16T02:22:35;101687.06;;;12.89;72.32
10342;BME280;5216;54.602;18.356;2024-02-16T02:25:02;101691.31;;;12.92;72.59
10342;BME280;5216;54.602;18.356;2024-02-16T02:27:29;101693.06;;;12.93;72.37
10342;BME280;5216;54.602;18.356;2024-02-16T02:29:55;101688.53;;;12.93;72.37
10342;BME280;5216;54.602;18.356;2024-02-16T02:32:22;101685.97;;;12.92;72.46
10342;BME280;5216;54.602;18.356;2024-02-16T02:34:49;101691.31;;;12.92;72.48
10342;BME280;5216;54.602;18.356;2024-02-16T02:37:15;101695.00;;;12.91;71.98
10342;BME280;5216;54.602;18.356;2024-02-16T02:39:42;101687.69;;;12.93;72.63
10342;BME280;5216;54.602;18.356;2024-02-16T02:42:10;101673.53;;;12.91;72.44
10342;BME280;5216;54.602;18.356;2024-02-16T02:44:37;101677.91;;;12.92;71.97
10342;BME280;5216;54.602;18.356;2024-02-16T02:47:04;101671.59;;;12.93;72.42
10342;BME280;5216;54.602;18.356;2024-02-16T02:49:31;101671.59;;;12.93;72.32
10342;BME280;5216;54.602;18.356;2024-02-16T02:52:00;101669.84;;;12.92;72.30
10342;BME280;5216;54.602;18.356;2024-02-16T02:54:26;101675.50;;;12.89;71.92
10342;BME280;5216;54.602;18.356;2024-02-16T02:56:53;101670.38;;;12.86;72.03
10342;BME280;5216;54.602;18.356;2024-02-16T02:59:20;101672.06;;;12.87;72.37
10342;BME280;5216;54.602;18.356;2024-02-16T03:01:47;101667.69;;;12.86;72.33
10342;BME280;5216;54.602;18.356;2024-02-16T03:04:14;101664.16;;;12.86;72.58
10342;BME280;5216;54.602;18.356;2024-02-16T03:06:41;101665.25;;;12.83;72.68
10342;BME280;5216;54.602;18.356;2024-02-16T03:09:08;101668.91;;;12.82;72.40
10342;BME280;5216;54.602;18.356;2024-02-16T03:11:35;101661.81;;;12.81;72.23
10342;BME280;5216;54.602;18.356;2024-02-16T03:14:02;101660.13;;;12.80;72.36
10342;BME280;5216;54.602;18.356;2024-02-16T03:16:29;101662.06;;;12.78;72.21
10342;BME280;5216;54.602;18.356;2024-02-16T03:18:56;101655.72;;;12.79;72.45
10342;BME280;5216;54.602;18.356;2024-02-16T03:21:23;101653.06;;;12.79;72.82
10342;BME280;5216;54.602;18.356;2024-02-16T03:23:51;101659.88;;;12.83;72.45
10342;BME280;5216;54.602;18.356;2024-02-16T03:26:19;101660.75;;;12.84;72.48
10342;BME280;5216;54.602;18.356;2024-02-16T03:28:47;101670.59;;;12.83;72.71
10342;BME280;5216;54.602;18.356;2024-02-16T03:31:22;101669.75;;;12.83;72.67
10342;BME280;5216;54.602;18.356;2024-02-16T03:33:50;101675.97;;;12.83;72.55
10342;BME280;5216;54.602;18.356;2024-02-16T03:36:18;101661.81;;;12.81;72.71
10342;BME280;5216;54.602;18.356;2024-02-16T03:38:47;101673.56;;;12.80;72.31
10342;BME280;5216;54.602;18.356;2024-02-16T03:41:21;101671.06;;;12.77;72.49
10342;BME280;5216;54.602;18.356;2024-02-16T03:43:48;101664.66;;;12.80;72.67
10342;BME280;5216;54.602;18.356;2024-02-16T03:46:15;101669.16;;;12.79;72.64
10342;BME280;5216;54.602;18.356;2024-02-16T03:48:42;101662.06;;;12.78;72.59
10342;BME280;5216;54.602;18.356;2024-02-16T03:51:09;101661.34;;;12.76;72.36
10342;BME280;5216;54.602;18.356;2024-02-16T03:53:36;101667.66;;;12.75;72.62
10342;BME280;5216;54.602;18.356;2024-02-16T03:56:03;101669.38;;;12.76;72.93
10342;BME280;5216;54.602;18.356;2024-02-16T03:58:32;101670.09;;;12.78;72.88
10342;BME280;5216;54.602;18.356;2024-02-16T04:00:59;101664.75;;;12.78;72.65
10342;BME280;5216;54.602;18.356;2024-02-16T04:03:26;101677.91;;;12.81;72.76
10342;BME280;5216;54.602;18.356;2024-02-16T04:05:53;101664.66;;;12.80;73.05
10342;BME280;5216;54.602;18.356;2024-02-16T04:08:20;101668.91;;;12.82;72.82
10342;BME280;5216;54.602;18.356;2024-02-16T04:10:47;101677.69;;;12.84;73.06
10342;BME280;5216;54.602;18.356;2024-02-16T04:13:14;101668.66;;;12.85;72.67
10342;BME280;5216;54.602;18.356;2024-02-16T04:15:41;101676.69;;;12.85;72.75
10342;BME280;5216;54.602;18.356;2024-02-16T04:18:08;101685.00;;;12.82;72.35
10342;BME280;5216;54.602;18.356;2024-02-16T04:20:36;101669.03;;;12.81;72.42
10342;BME280;5216;54.602;18.356;2024-02-16T04:23:04;101678.06;;;12.80;72.80
10342;BME280;5216;54.602;18.356;2024-02-16T04:25:31;101674.50;;;12.79;72.79
10342;BME280;5216;54.602;18.356;2024-02-16T04:27:58;101676.44;;;12.77;72.04
10342;BME280;5216;54.602;18.356;2024-02-16T04:30:24;101667.66;;;12.75;72.56
10342;BME280;5216;54.602;18.356;2024-02-16T04:32:51;101665.13;;;12.74;72.60
10342;BME280;5216;54.602;18.356;2024-02-16T04:35:18;101671.34;;;12.74;72.29
10342;BME280;5216;54.602;18.356;2024-02-16T04:37:45;101671.56;;;12.71;72.62
10342;BME280;5216;54.602;18.356;2024-02-16T04:40:12;101661.09;;;12.68;72.60
10342;BME280;5216;54.602;18.356;2024-02-16T04:42:39;101663.78;;;12.68;72.43
10342;BME280;5216;54.602;18.356;2024-02-16T04:45:07;101665.38;;;12.71;72.48
10342;BME280;5216;54.602;18.356;2024-02-16T04:47:34;101664.53;;;12.70;72.63
10342;BME280;5216;54.602;18.356;2024-02-16T04:50:02;101664.53;;;12.70;72.58
10342;BME280;5216;54.602;18.356;2024-02-16T04:52:29;101659.03;;;12.72;73.10
10342;BME280;5216;54.602;18.356;2024-02-16T04:54:56;101649.59;;;12.77;73.42
10342;BME280;5216;54.602;18.356;2024-02-16T04:57:23;101648.56;;;12.80;73.04
10342;BME280;5216;54.602;18.356;2024-02-16T04:59:50;101650.13;;;12.82;73.10
10342;BME280;5216;54.602;18.356;2024-02-16T05:02:17;101643.78;;;12.83;73.16
10342;BME280;5216;54.602;18.356;2024-02-16T05:04:43;101647.19;;;12.85;73.09
10342;BME280;5216;54.602;18.356;2024-02-16T05:07:10;101643.53;;;12.86;73.03
10342;BME280;5216;54.602;18.356;2024-02-16T05:09:37;101641.56;;;12.88;73.35
10342;BME280;5216;54.602;18.356;2024-02-16T05:12:06;101636.94;;;12.90;73.42
10342;BME280;5216;54.602;18.356;2024-02-16T05:14:35;101638.50;;;12.92;73.27
10342;BME280;5216;54.602;18.356;2024-02-16T05:17:02;101650.97;;;12.93;73.34
10342;BME280;5216;54.602;18.356;2024-02-16T05:19:33;101646.44;;;12.94;73.19
10342;BME280;5216;54.602;18.356;2024-02-16T05:22:01;101649.13;;;12.94;72.99
10342;BME280;5216;54.602;18.356;2024-02-16T05:24:28;101650.69;;;12.96;73.20
10342;BME280;5216;54.602;18.356;2024-02-16T05:26:55;101644.47;;;12.96;72.88
10342;BME280;5216;54.602;18.356;2024-02-16T05:29:22;101656.06;;;12.96;72.91
10342;BME280;5216;54.602;18.356;2024-02-16T05:31:53;101650.84;;;12.95;72.73
10342;BME280;5216;54.602;18.356;2024-02-16T05:34:19;101646.19;;;12.97;73.07
10342;BME280;5216;54.602;18.356;2024-02-16T05:36:46;101647.03;;;12.97;72.84
10342;BME280;5216;54.602;18.356;2024-02-16T05:39:14;101649.59;;;12.99;73.39
10342;BME280;5216;54.602;18.356;2024-02-16T05:41:48;101650.34;;;13.01;73.24
10342;BME280;5216;54.602;18.356;2024-02-16T05:44:14;101643.97;;;13.02;73.08
10342;BME280;5216;54.602;18.356;2024-02-16T05:46:41;101643.84;;;13.03;72.83
10342;BME280;5216;54.602;18.356;2024-02-16T05:49:08;101643.97;;;13.02;73.11
10342;BME280;5216;54.602;18.356;2024-02-16T05:51:37;101650.78;;;13.06;73.21
10342;BME280;5216;54.602;18.356;2024-02-16T05:54:08;101643.56;;;13.06;73.04
10342;BME280;5216;54.602;18.356;2024-02-16T05:56:34;101654.19;;;13.08;72.98
10342;BME280;5216;54.602;18.356;2024-02-16T05:59:03;101639.22;;;13.05;73.08
10342;BME280;5216;54.602;18.356;2024-02-16T06:01:30;101646.88;;;13.10;73.02
10342;BME280;5216;54.602;18.356;2024-02-16T06:03:57;101651.13;;;13.12;72.94
10342;BME280;5216;54.602;18.356;2024-02-16T06:06:23;101649.31;;;13.13;72.64
10342;BME280;5216;54.602;18.356;2024-02-16T06:08:50;101651.13;;;13.12;72.92
10342;BME280;5216;54.602;18.356;2024-02-16T06:11:17;101642.09;;;13.13;72.84
10342;BME280;5216;54.602;18.356;2024-02-16T06:13:44;101649.19;;;13.14;72.68
10342;BME280;5216;54.602;18.356;2024-02-16T06:16:10;101648.31;;;13.14;72.47
10342;BME280;5216;54.602;18.356;2024-02-16T06:18:37;101646.63;;;13.13;72.27
10342;BME280;5216;54.602;18.356;2024-02-16T06:21:04;101652.00;;;13.13;72.29
10342;BME280;5216;54.602;18.356;2024-02-16T06:23:31;101643.06;;;13.12;72.80
10342;BME280;5216;54.602;18.356;2024-02-16T06:25:58;101646.63;;;13.13;72.38
10342;BME280;5216;54.602;18.356;2024-02-16T06:28:24;101654.69;;;13.13;72.50
10342;BME280;5216;54.602;18.356;2024-02-16T06:30:51;101660.03;;;13.13;72.20
10342;BME280;5216;54.602;18.356;2024-02-16T06:33:18;101650.88;;;13.15;72.63
10342;BME280;5216;54.602;18.356;2024-02-16T06:35:45;101648.19;;;13.15;72.39
10342;BME280;5216;54.602;18.356;2024-02-16T06:38:13;101650.75;;;13.17;72.59
10342;BME280;5216;54.602;18.356;2024-02-16T06:40:40;101651.47;;;13.19;72.07
10342;BME280;5216;54.602;18.356;2024-02-16T06:43:06;101655.72;;;13.21;72.06
10342;BME280;5216;54.602;18.356;2024-02-16T06:45:33;101635.97;;;13.22;71.91
10342;BME280;5216;54.602;18.356;2024-02-16T06:48:00;101635.69;;;13.25;71.40
10342;BME280;5216;54.602;18.356;2024-02-16T06:50:27;101640.94;;;13.26;71.60
10342;BME280;5216;54.602;18.356;2024-02-16T06:52:54;101634.59;;;13.27;71.54
10342;BME280;5216;54.602;18.356;2024-02-16T06:55:22;101630.94;;;13.28;71.33
10342;BME280;5216;54.602;18.356;2024-02-16T06:57:49;101637.03;;;13.30;71.37
10342;BME280;5216;54.602;18.356;2024-02-16T07:00:22;101637.75;;;13.32;71.43
10342;BME280;5216;54.602;18.356;2024-02-16T07:02:59;101641.16;;;13.34;71.04
10342;BME280;5216;54.602;18.356;2024-02-16T07:05:25;101626.72;;;13.35;70.95
10342;BME280;5216;54.602;18.356;2024-02-16T07:07:54;101634.66;;;13.37;71.23
10342;BME280;5216;54.602;18.356;2024-02-16T07:10:21;101631.13;;;13.36;70.98
10342;BME280;5216;54.602;18.356;2024-02-16T07:12:47;101631.84;;;13.38;70.88
10342;BME280;5216;54.602;18.356;2024-02-16T07:15:14;101638.94;;;13.39;70.46
10342;BME280;5216;54.602;18.356;2024-02-16T07:17:41;101629.88;;;13.40;70.51
10342;BME280;5216;54.602;18.356;2024-02-16T07:20:08;101634.28;;;13.41;70.24
10342;BME280;5216;54.602;18.356;2024-02-16T07:22:35;101628.44;;;13.36;70.03
10342;BME280;5216;54.602;18.356;2024-02-16T07:25:02;101628.44;;;13.36;69.87
10342;BME280;5216;54.602;18.356;2024-02-16T07:27:31;101624.03;;;13.35;69.81
10342;BME280;5216;54.602;18.356;2024-02-16T07:29:58;101623.91;;;13.37;69.91
10342;BME280;5216;54.602;18.356;2024-02-16T07:32:25;101615.03;;;13.36;70.12
10342;BME280;5216;54.602;18.356;2024-02-16T07:34:51;101621.34;;;13.35;69.89
10342;BME280;5216;54.602;18.356;2024-02-16T07:37:18;101618.44;;;13.38;69.92
10342;BME280;5216;54.602;18.356;2024-02-16T07:39:45;101619.38;;;13.37;69.75
10342;BME280;5216;54.602;18.356;2024-02-16T07:42:12;101633.56;;;13.39;69.45
10342;BME280;5216;54.602;18.356;2024-02-16T07:44:42;101623.69;;;13.40;69.52
10342;BME280;5216;54.602;18.356;2024-02-16T07:47:08;101614.63;;;13.41;69.39
10342;BME280;5216;54.602;18.356;2024-02-16T07:49:38;101614.63;;;13.41;69.53
10342;BME280;5216;54.602;18.356;2024-02-16T07:52:05;101612.94;;;13.40;69.34
10342;BME280;5216;54.602;18.356;2024-02-16T07:54:32;101615.50;;;13.41;69.27
10342;BME280;5216;54.602;18.356;2024-02-16T07:56:59;101610.84;;;13.43;69.23
10342;BME280;5216;54.602;18.356;2024-02-16T07:59:27;101615.22;;;13.44;69.23
10342;BME280;5216;54.602;18.356;2024-02-16T08:01:54;101604.47;;;13.44;69.01
10342;BME280;5216;54.602;18.356;2024-02-16T08:04:21;101603.50;;;13.45;69.32
10342;BME280;5216;54.602;18.356;2024-02-16T08:06:47;101597.13;;;13.46;69.22
10342;BME280;5216;54.602;18.356;2024-02-16T08:09:14;101595.16;;;13.48;69.03
10342;BME280;5216;54.602;18.356;2024-02-16T08:11:41;101594.22;;;13.49;68.92
10342;BME280;5216;54.602;18.356;2024-02-16T08:14:09;101590.53;;;13.50;69.17
10342;BME280;5216;54.602;18.356;2024-02-16T08:16:36;101587.59;;;13.53;69.07
10342;BME280;5216;54.602;18.356;2024-02-16T08:19:02;101604.88;;;13.60;68.83
10342;BME280;5216;54.602;18.356;2024-02-16T08:21:29;101583.13;;;13.63;69.03
10342;BME280;5216;54.602;18.356;2024-02-16T08:23:56;101586.53;;;13.65;68.54
10342;BME280;5216;54.602;18.356;2024-02-16T08:26:23;101584.56;;;13.67;68.66
10342;BME280;5216;54.602;18.356;2024-02-16T08:28:52;101583.44;;;13.69;68.57
10342;BME280;5216;54.602;18.356;2024-02-16T08:31:19;101571.56;;;13.72;68.53
10342;BME280;5216;54.602;18.356;2024-02-16T08:33:46;101580.50;;;13.72;68.21
10342;BME280;5216;54.602;18.356;2024-02-16T08:36:14;101582.06;;;13.75;68.19
10342;BME280;5216;54.602;18.356;2024-02-16T08:38:41;101580.09;;;13.77;68.21
10342;BME280;5216;54.602;18.356;2024-02-16T08:41:08;101560.28;;;13.78;67.92
10342;BME280;5216;54.602;18.356;2024-02-16T08:43:35;101570.78;;;13.81;67.63
10342;BME280;5216;54.602;18.356;2024-02-16T08:46:01;101578.72;;;13.82;67.41
10342;BME280;5216;54.602;18.356;2024-02-16T08:48:28;101574.88;;;13.85;67.36
10342;BME280;5216;54.602;18.356;2024-02-16T08:50:55;101577.56;;;13.85;67.07
10342;BME280;5216;54.602;18.356;2024-02-16T08:53:22;101578.16;;;13.88;67.22
10342;BME280;5216;54.602;18.356;2024-02-16T08:55:48;101574.34;;;13.91;67.15
10342;BME280;5216;54.602;18.356;2024-02-16T08:58:15;101566.03;;;13.94;67.03
10342;BME280;5216;54.602;18.356;2024-02-16T09:00:42;101565.75;;;13.97;66.80
10342;BME280;5216;54.602;18.356;2024-02-16T09:03:08;101572.59;;;14.00;66.55
10342;BME280;5216;54.602;18.356;2024-02-16T09:05:36;101566.09;;;14.03;66.37
10342;BME280;5216;54.602;18.356;2024-02-16T09:08:03;101568.63;;;14.04;65.89
10342;BME280;5216;54.602;18.356;2024-02-16T09:10:32;101562.13;;;14.07;65.45
10342;BME280;5216;54.602;18.356;2024-02-16T09:13:00;101564.69;;;14.08;65.77
10342;BME280;5216;54.602;18.356;2024-02-16T09:15:27;101561.88;;;14.10;65.60
10342;BME280;5216;54.602;18.356;2024-02-16T09:17:53;101555.50;;;14.11;65.34
10342;BME280;5216;54.602;18.356;2024-02-16T09:20:20;101564.44;;;14.11;65.37
10342;BME280;5216;54.602;18.356;2024-02-16T09:22:49;101565.16;;;14.13;65.26
10342;BME280;5216;54.602;18.356;2024-02-16T09:25:20;101558.78;;;14.14;65.37
10342;BME280;5216;54.602;18.356;2024-02-16T09:27:49;101560.50;;;14.15;65.20
10342;BME280;5216;54.602;18.356;2024-02-16T09:30:19;101572.94;;;14.16;65.38
10342;BME280;5216;54.602;18.356;2024-02-16T09:32:48;101558.50;;;14.17;65.31
10342;BME280;5216;54.602;18.356;2024-02-16T09:35:15;101562.88;;;14.18;65.08
10342;BME280;5216;54.602;18.356;2024-02-16T09:37:42;101578.63;;;14.23;64.92
10342;BME280;5216;54.602;18.356;2024-02-16T09:40:12;101564.06;;;14.25;64.51
10342;BME280;5216;54.602;18.356;2024-02-16T09:42:42;101561.38;;;14.25;64.46
10342;BME280;5216;54.602;18.356;2024-02-16T09:45:15;101561.22;;;14.27;64.45
10342;BME280;5216;54.602;18.356;2024-02-16T09:47:43;101557.41;;;14.29;64.55
10342;BME280;5216;54.602;18.356;2024-02-16T09:50:22;101560.53;;;14.34;64.31
10342;BME280;5216;54.602;18.356;2024-02-16T09:52:50;101549.75;;;14.34;64.45
10342;BME280;5216;54.602;18.356;2024-02-16T09:55:22;101557.44;;;14.38;64.25
10342;BME280;5216;54.602;18.356;2024-02-16T09:57:59;101548.94;;;14.43;63.99
10342;BME280;5216;54.602;18.356;2024-02-16T10:00:26;101548.81;;;14.44;63.83
10342;BME280;5216;54.602;18.356;2024-02-16T10:02:53;101546.72;;;14.48;64.04
10342;BME280;5216;54.602;18.356;2024-02-16T10:05:20;101548.25;;;14.50;63.99
10342;BME280;5216;54.602;18.356;2024-02-16T10:07:47;101540.19;;;14.50;63.97
10342;BME280;5216;54.602;18.356;2024-02-16T10:10:28;101545.84;;;14.57;63.84
10342;BME280;5216;54.602;18.356;2024-02-16T10:13:07;101541.91;;;14.61;63.59
10342;BME280;5216;54.602;18.356;2024-02-16T10:15:35;101530.00;;;14.63;63.55
10342;BME280;5216;54.602;18.356;2024-02-16T10:20:31;101533.97;;;14.69;63.40
10342;BME280;5216;54.602;18.356;2024-02-16T10:23:04;101524.94;;;14.70;63.54
10342;BME280;5216;54.602;18.356;2024-02-16T10:25:31;101527.31;;;14.72;63.09
10342;BME280;5216;54.602;18.356;2024-02-16T10:28:04;101528.91;;;14.75;63.02
10342;BME280;5216;54.602;18.356;2024-02-16T10:30:40;101514.16;;;14.79;62.88
10342;BME280;5216;54.602;18.356;2024-02-16T10:33:11;101508.63;;;14.80;62.75
10342;BME280;5216;54.602;18.356;2024-02-16T10:35:40;101511.88;;;14.84;62.76
10342;BME280;5216;54.602;18.356;2024-02-16T10:38:08;101505.34;;;14.86;62.61
10342;BME280;5216;54.602;18.356;2024-02-16T10:40:40;101521.25;;;14.89;62.43
10342;BME280;5216;54.602;18.356;2024-02-16T10:43:08;101513.03;;;14.91;62.08
10342;BME280;5216;54.602;18.356;2024-02-16T10:45:38;101515.59;;;14.92;62.48
10342;BME280;5216;54.602;18.356;2024-02-16T10:48:07;101508.22;;;14.94;62.24
10342;BME280;5216;54.602;18.356;2024-02-16T10:50:37;101499.97;;;14.96;61.92
10342;BME280;5216;54.602;18.356;2024-02-16T10:55:35;101511.31;;;14.99;62.03
10342;BME280;5216;54.602;18.356;2024-02-16T10:58:02;101492.59;;;14.98;61.86
10342;BME280;5216;54.602;18.356;2024-02-16T11:00:29;101494.88;;;15.02;61.84
10342;BME280;5216;54.602;18.356;2024-02-16T11:02:57;101498.28;;;15.04;62.22
10342;BME280;5216;54.602;18.356;2024-02-16T11:05:36;101500.66;;;15.07;61.71
10342;BME280;5216;54.602;18.356;2024-02-16T11:08:04;101509.75;;;15.06;61.31
10342;BME280;5216;54.602;18.356;2024-02-16T11:10:31;101492.91;;;15.04;61.02
10342;BME280;5216;54.602;18.356;2024-02-16T11:13:04;101487.78;;;15.01;61.38
10342;BME280;5216;54.602;18.356;2024-02-16T11:15:32;101493.16;;;15.01;61.17
10342;BME280;5216;54.602;18.356;2024-02-16T11:18:03;101496.88;;;15.00;61.59
10342;BME280;5216;54.602;18.356;2024-02-16T11:20:36;101488.78;;;15.00;61.80
10342;BME280;5216;54.602;18.356;2024-02-16T11:23:08;101482.41;;;15.01;61.76
10342;BME280;5216;54.602;18.356;2024-02-16T11:25:38;101474.19;;;15.03;61.76
10342;BME280;5216;54.602;18.356;2024-02-16T11:28:05;101460.59;;;15.04;61.75
10342;BME280;5216;54.602;18.356;2024-02-16T11:30:33;101460.28;;;15.07;62.02
10342;BME280;5216;54.602;18.356;2024-02-16T11:33:01;101451.06;;;15.09;61.85
10342;BME280;5216;54.602;18.356;2024-02-16T11:35:29;101448.97;;;15.13;61.64
10342;BME280;5216;54.602;18.356;2024-02-16T11:37:56;101437.06;;;15.15;61.38
10342;BME280;5216;54.602;18.356;2024-02-16T11:40:23;101439.31;;;15.20;61.44
10342;BME280;5216;54.602;18.356;2024-02-16T11:42:57;101437.31;;;15.22;61.64
10342;BME280;5216;54.602;18.356;2024-02-16T11:45:24;101425.28;;;15.26;61.75
10342;BME280;5216;54.602;18.356;2024-02-16T11:48:08;101423.97;;;15.30;61.63
10342;BME280;5216;54.602;18.356;2024-02-16T11:50:36;101418.56;;;15.39;62.01
10342;BME280;5216;54.602;18.356;2024-02-16T11:53:03;101416.41;;;15.69;62.27
10342;BME280;5216;54.602;18.356;2024-02-16T11:55:31;101409.00;;;16.59;61.93
10342;BME280;5216;54.602;18.356;2024-02-16T11:58:00;101403.88;;;17.41;58.97
10342;BME280;5216;54.602;18.356;2024-02-16T12:00:26;101411.34;;;17.80;57.09
10342;BME280;5216;54.602;18.356;2024-02-16T12:03:00;101397.38;;;18.00;55.76
10342;BME280;5216;54.602;18.356;2024-02-16T12:05:28;101411.66;;;18.18;55.11
10342;BME280;5216;54.602;18.356;2024-02-16T12:07:57;101405.25;;;18.27;54.80
10342;BME280;5216;54.602;18.356;2024-02-16T12:10:24;101400.50;;;18.29;53.96
10342;BME280;5216;54.602;18.356;2024-02-16T12:12:51;101390.72;;;18.28;53.68
10342;BME280;5216;54.602;18.356;2024-02-16T12:15:18;101395.78;;;18.31;53.97
10342;BME280;5216;54.602;18.356;2024-02-16T12:17:47;101389.69;;;18.37;53.97
10342;BME280;5216;54.602;18.356;2024-02-16T12:20:14;101390.72;;;18.36;53.19
10342;BME280;5216;54.602;18.356;2024-02-16T12:22:41;101375.84;;;18.40;53.46
10342;BME280;5216;54.602;18.356;2024-02-16T12:25:08;101382.94;;;18.41;52.95
10342;BME280;5216;54.602;18.356;2024-02-16T12:27:35;101384.31;;;18.44;53.37
10342;BME280;5216;54.602;18.356;2024-02-16T12:30:02;101374.50;;;18.43;53.08
10342;BME280;5216;54.602;18.356;2024-02-16T12:32:30;101365.69;;;18.42;52.17
10342;BME280;5216;54.602;18.356;2024-02-16T12:34:57;101377.50;;;18.33;52.35
10342;BME280;5216;54.602;18.356;2024-02-16T12:37:24;101365.31;;;18.21;52.52
10342;BME280;5216;54.602;18.356;2024-02-16T12:39:51;101354.63;;;18.11;52.69
10342;BME280;5216;54.602;18.356;2024-02-16T12:42:18;101346.66;;;18.02;53.27
10342;BME280;5216;54.602;18.356;2024-02-16T12:44:44;101343.59;;;17.97;53.43
10342;BME280;5216;54.602;18.356;2024-02-16T12:47:12;101340.53;;;17.92;53.39
10342;BME280;5216;54.602;18.356;2024-02-16T12:49:40;101348.31;;;17.87;53.58
10342;BME280;5216;54.602;18.356;2024-02-16T12:52:07;101347.09;;;17.82;53.79
10342;BME280;5216;54.602;18.356;2024-02-16T12:54:34;101341.84;;;17.80;53.76
10342;BME280;5216;54.602;18.356;2024-02-16T12:57:01;101345.75;;;17.78;53.67
10342;BME280;5216;54.602;18.356;2024-02-16T12:59:28;101342.19;;;17.77;53.74
10342;BME280;5216;54.602;18.356;2024-02-16T13:01:54;101339.66;;;17.76;53.68
10342;BME280;5216;54.602;18.356;2024-02-16T13:04:22;101342.53;;;17.74;53.36
10342;BME280;5216;54.602;18.356;2024-02-16T13:06:49;101334.06;;;17.69;53.30
10342;BME280;5216;54.602;18.356;2024-02-16T13:09:17;101326.94;;;17.68;52.96
10342;BME280;5216;54.602;18.356;2024-02-16T13:11:44;101328.97;;;17.67;53.23